createdAt,value
2023-05-21T00:00:10.680Z,59.55
2023-05-21T00:03:16.356Z,59.04
2023-05-21T00:06:20.810Z,59.47
2023-05-21T00:09:22.516Z,59.75
2023-05-21T00:12:24.119Z,59.56
2023-05-21T00:15:25.738Z,59.55
2023-05-21T00:18:27.260Z,59.60
2023-05-21T00:21:29.664Z,59.76
2023-05-21T00:24:31.201Z,59.76
2023-05-21T00:27:32.703Z,59.62
2023-05-21T00:30:34.222Z,59.94
2023-05-21T00:33:35.765Z,59.58
2023-05-21T00:36:38.017Z,59.72
2023-05-21T00:39:39.728Z,59.96
2023-05-21T00:42:41.592Z,59.91
2023-05-21T00:45:44.477Z,59.83
2023-05-21T00:48:47.486Z,59.79
2023-05-21T00:51:49.649Z,59.69
2023-05-21T00:54:52.180Z,59.61
2023-05-21T00:57:53.857Z,59.54
2023-05-21T01:00:56.499Z,59.48
2023-05-21T01:03:59.703Z,59.22
2023-05-21T01:07:01.892Z,59.14
2023-05-21T01:10:08.576Z,59.31
2023-05-21T01:13:10.168Z,59.26
2023-05-21T01:16:13.634Z,59.20
2023-05-21T01:19:23.833Z,58.96
2023-05-21T01:22:28.519Z,58.97
2023-05-21T01:25:30.332Z,58.80
2023-05-21T01:28:34.356Z,58.92
2023-05-21T01:31:55.450Z,58.79
2023-05-21T01:35:05.108Z,58.71
2023-05-21T01:38:22.664Z,58.60
2023-05-21T01:41:26.330Z,58.56
2023-05-21T01:44:28.835Z,58.41
2023-05-21T01:47:31.964Z,58.85
2023-05-21T01:50:35.433Z,58.71
2023-05-21T01:53:38.824Z,58.90
2023-05-21T01:56:40.420Z,58.60
2023-05-21T01:59:42.021Z,58.73
2023-05-21T02:02:43.631Z,58.35
2023-05-21T02:05:45.887Z,58.47
2023-05-21T02:08:48.297Z,58.96
2023-05-21T02:11:49.928Z,58.40
2023-05-21T02:14:51.633Z,58.79
2023-05-21T02:17:53.307Z,58.95
2023-05-21T02:20:54.880Z,58.65
2023-05-21T02:23:56.430Z,58.83
2023-05-21T02:26:58.583Z,58.98
2023-05-21T02:30:00.330Z,59.27
2023-05-21T02:33:02.840Z,59.15
2023-05-21T02:36:04.966Z,58.75
2023-05-21T02:39:06.607Z,58.67
2023-05-21T02:42:08.206Z,58.97
2023-05-21T02:45:11.789Z,58.86
2023-05-21T02:48:15.915Z,58.87
2023-05-21T02:51:17.563Z,58.57
2023-05-21T02:54:19.235Z,58.59
2023-05-21T02:57:20.878Z,59.06
2023-05-21T03:00:22.547Z,59.54
2023-05-21T03:03:24.397Z,59.29
2023-05-21T03:06:26.091Z,59.27
2023-05-21T03:09:28.087Z,59.28
2023-05-21T03:12:31.975Z,59.17
2023-05-21T03:15:35.018Z,59.17
2023-05-21T03:18:36.765Z,59.22
2023-05-21T03:21:38.474Z,59.12
2023-05-21T03:24:41.359Z,58.86
2023-05-21T03:27:43.792Z,58.83
2023-05-21T03:31:08.130Z,59.09
2023-05-21T03:34:09.699Z,58.76
2023-05-21T03:37:11.396Z,58.74
2023-05-21T03:40:13.687Z,58.93
2023-05-21T03:43:16.652Z,58.56
2023-05-21T03:46:18.417Z,59.03
2023-05-21T03:49:34.398Z,58.91
2023-05-21T03:52:36.206Z,58.95
2023-05-21T03:55:38.340Z,58.93
2023-05-21T03:58:40.804Z,58.81
2023-05-21T04:01:42.648Z,58.78
2023-05-21T04:04:51.614Z,59.00
2023-05-21T04:07:54.234Z,58.98
2023-05-21T04:10:55.798Z,58.82
2023-05-21T04:13:57.639Z,58.98
2023-05-21T04:16:59.159Z,59.01
2023-05-21T04:20:01.233Z,59.03
2023-05-21T04:23:04.956Z,59.21
2023-05-21T04:26:07.577Z,58.81
2023-05-21T04:29:09.992Z,59.34
2023-05-21T04:32:11.725Z,59.36
2023-05-21T04:35:17.526Z,59.38
2023-05-21T04:38:19.809Z,59.32
2023-05-21T04:41:21.920Z,59.38
2023-05-21T04:44:23.504Z,59.44
2023-05-21T04:47:25.174Z,59.33
2023-05-21T04:50:30.550Z,59.45
2023-05-21T04:53:32.140Z,59.44
2023-05-21T04:56:33.672Z,59.88
2023-05-21T04:59:36.241Z,59.63
2023-05-21T05:02:37.853Z,59.29
2023-05-21T05:05:40.392Z,59.37
2023-05-21T05:08:42.063Z,59.19
2023-05-21T05:11:43.699Z,59.33
2023-05-21T05:14:45.892Z,59.13
2023-05-21T05:17:50.503Z,58.89
2023-05-21T05:20:52.263Z,58.95
2023-05-21T05:23:54.028Z,59.22
2023-05-21T05:26:59.980Z,59.30
2023-05-21T05:30:01.706Z,59.43
2023-05-21T05:33:03.605Z,59.78
2023-05-21T05:36:05.669Z,59.77
2023-05-21T05:39:07.694Z,60.24
2023-05-21T05:42:09.337Z,60.04
2023-05-21T05:45:11.501Z,60.09
2023-05-21T05:48:14.689Z,60.07
2023-05-21T05:51:17.149Z,59.81
2023-05-21T05:54:19.452Z,59.80
2023-05-21T05:57:21.119Z,59.80
2023-05-21T06:00:26.187Z,59.61
2023-05-21T06:03:28.633Z,60.04
2023-05-21T06:06:31.920Z,59.90
2023-05-21T06:09:33.451Z,60.40
2023-05-21T06:12:35.076Z,60.46
2023-05-21T06:15:37.231Z,60.82
2023-05-21T06:18:39.340Z,60.97
2023-05-21T06:21:41.051Z,60.43
2023-05-21T06:24:42.854Z,60.86
2023-05-21T06:27:45.225Z,60.28
2023-05-21T06:30:54.042Z,60.07
2023-05-21T06:33:55.729Z,60.11
2023-05-21T06:36:57.436Z,60.04
2023-05-21T06:39:58.968Z,60.03
2023-05-21T06:43:05.225Z,59.69
2023-05-21T06:46:25.833Z,59.26
2023-05-21T06:49:27.526Z,59.60
2023-05-21T06:52:29.274Z,59.53
2023-05-21T06:55:31.082Z,59.70
2023-05-21T06:58:56.062Z,59.57
2023-05-21T07:01:57.681Z,59.70
2023-05-21T07:04:59.377Z,59.59
2023-05-21T07:08:00.949Z,59.40
2023-05-21T07:11:02.489Z,59.39
2023-05-21T07:14:04.850Z,59.19
2023-05-21T07:17:08.600Z,59.32
2023-05-21T07:20:11.728Z,59.30
2023-05-21T07:23:16.078Z,58.99
2023-05-21T07:26:17.756Z,59.00
2023-05-21T07:29:20.089Z,59.09
2023-05-21T07:32:21.825Z,59.13
2023-05-21T07:35:23.647Z,59.41
2023-05-21T07:38:26.149Z,59.58
2023-05-21T07:41:27.999Z,59.67
2023-05-21T07:44:29.615Z,59.78
2023-05-21T07:47:31.450Z,60.08
2023-05-21T07:50:33.981Z,60.06
2023-05-21T07:53:35.672Z,60.20
2023-05-21T07:56:40.984Z,60.17
2023-05-21T07:59:45.233Z,60.57
2023-05-21T08:02:47.217Z,60.29
2023-05-21T08:05:50.760Z,60.13
2023-05-21T08:08:54.234Z,60.12
2023-05-21T08:11:55.978Z,59.91
2023-05-21T08:14:58.145Z,59.87
2023-05-21T08:17:59.959Z,59.93
2023-05-21T08:21:02.502Z,59.76
2023-05-21T08:24:04.333Z,59.59
2023-05-21T08:27:07.708Z,59.68
2023-05-21T08:30:11.538Z,59.69
2023-05-21T08:33:13.900Z,59.59
2023-05-21T08:36:15.615Z,59.77
2023-05-21T08:39:24.649Z,59.73
2023-05-21T08:42:51.324Z,59.37
2023-05-21T08:46:05.006Z,59.30
2023-05-21T08:49:13.117Z,59.32
2023-05-21T08:52:15.740Z,59.16
2023-05-21T08:55:18.583Z,59.16
2023-05-21T08:58:20.968Z,59.22
2023-05-21T09:01:24.156Z,59.32
2023-05-21T09:04:58.694Z,59.20
2023-05-21T09:08:09.469Z,59.17
2023-05-21T09:11:20.125Z,59.23
2023-05-21T09:14:28.714Z,59.11
2023-05-21T09:17:51.822Z,59.40
2023-05-21T09:21:30.113Z,59.08
2023-05-21T09:24:36.435Z,59.17
2023-05-21T09:27:40.142Z,59.13
2023-05-21T09:30:52.167Z,59.09
2023-05-21T09:33:55.671Z,58.99
2023-05-21T09:37:01.486Z,59.13
2023-05-21T09:40:10.424Z,59.15
2023-05-21T09:43:16.286Z,59.12
2023-05-21T09:46:25.624Z,59.12
2023-05-21T09:49:28.152Z,59.12
2023-05-21T09:52:31.970Z,59.26
2023-05-21T09:55:36.273Z,59.21
2023-05-21T09:58:38.291Z,59.26
2023-05-21T10:01:39.964Z,59.29
2023-05-21T10:04:43.206Z,59.27
2023-05-21T10:07:50.335Z,59.19
2023-05-21T10:10:52.082Z,59.29
2023-05-21T10:14:19.567Z,59.34
2023-05-21T10:17:23.177Z,59.40
2023-05-21T10:20:25.674Z,59.29
2023-05-21T10:23:28.002Z,59.38
2023-05-21T10:26:30.326Z,59.46
2023-05-21T10:29:32.250Z,59.33
2023-05-21T10:32:34.461Z,59.29
2023-05-21T10:35:38.066Z,59.33
2023-05-21T10:38:41.796Z,59.45
2023-05-21T10:42:16.678Z,59.43
2023-05-21T10:45:21.404Z,59.66
2023-05-21T10:48:31.806Z,59.73
2023-05-21T10:51:45.254Z,60.01
2023-05-21T10:54:58.794Z,60.08
2023-05-21T10:58:00.285Z,60.33
2023-05-21T11:01:03.497Z,61.15
2023-05-21T11:04:06.174Z,61.32
2023-05-21T11:07:08.203Z,61.40
2023-05-21T11:10:39.328Z,61.71
2023-05-21T11:13:51.462Z,61.95
2023-05-21T11:16:58.591Z,62.25
2023-05-21T11:20:05.185Z,62.29
2023-05-21T11:23:06.743Z,62.37
2023-05-21T11:26:08.321Z,62.62
2023-05-21T11:29:11.352Z,62.80
2023-05-21T11:32:15.027Z,63.12
2023-05-21T11:35:16.568Z,63.27
2023-05-21T11:38:18.228Z,63.40
2023-05-21T11:41:20.137Z,63.43
2023-05-21T11:44:39.213Z,63.45
2023-05-21T11:47:41.851Z,63.52
2023-05-21T11:50:43.436Z,63.75
2023-05-21T11:53:45.962Z,64.34
2023-05-21T11:56:48.251Z,64.48
2023-05-21T11:59:53.137Z,64.61
2023-05-21T12:02:56.776Z,64.45
2023-05-21T12:06:05.595Z,64.29
2023-05-21T12:09:07.244Z,64.41
2023-05-21T12:12:09.735Z,64.53
2023-05-21T12:15:13.362Z,64.46
2023-05-21T12:18:16.536Z,64.46
2023-05-21T12:21:18.329Z,64.51
2023-05-21T12:24:19.879Z,64.58
2023-05-21T12:27:22.273Z,64.61
2023-05-21T12:30:27.234Z,64.68
2023-05-21T12:33:37.848Z,64.78
2023-05-21T12:36:39.386Z,65.05
2023-05-21T12:39:43.616Z,65.15
2023-05-21T12:42:45.466Z,65.31
2023-05-21T12:45:47.056Z,65.25
2023-05-21T12:48:58.101Z,65.36
2023-05-21T12:51:59.831Z,65.54
2023-05-21T12:55:01.451Z,65.40
2023-05-21T12:58:10.684Z,65.36
2023-05-21T13:01:12.530Z,65.36
2023-05-21T13:04:14.219Z,65.51
2023-05-21T13:07:16.641Z,65.57
2023-05-21T13:10:18.733Z,65.50
2023-05-21T13:13:20.653Z,65.40
2023-05-21T13:16:24.093Z,65.37
2023-05-21T13:19:26.093Z,65.43
2023-05-21T13:22:27.692Z,65.51
2023-05-21T13:25:29.428Z,65.58
2023-05-21T13:28:31.090Z,65.64
2023-05-21T13:31:32.593Z,65.69
2023-05-21T13:34:34.081Z,65.67
2023-05-21T13:37:36.188Z,65.90
2023-05-21T13:40:39.000Z,66.07
2023-05-21T13:43:44.409Z,65.88
2023-05-21T13:46:46.184Z,65.99
2023-05-21T13:49:47.830Z,66.14
2023-05-21T13:52:49.395Z,66.14
2023-05-21T13:55:51.071Z,66.12
2023-05-21T13:58:52.633Z,65.97
2023-05-21T14:01:54.342Z,65.75
2023-05-21T14:04:55.910Z,65.80
2023-05-21T14:07:57.550Z,65.72
2023-05-21T14:10:59.111Z,65.54
2023-05-21T14:14:01.018Z,65.58
2023-05-21T14:17:02.664Z,65.27
2023-05-21T14:20:04.451Z,65.30
2023-05-21T14:23:06.026Z,65.33
2023-05-21T14:26:07.527Z,65.25
2023-05-21T14:29:09.635Z,65.20
2023-05-21T14:32:11.256Z,65.15
2023-05-21T14:35:12.826Z,64.96
2023-05-21T14:38:14.400Z,64.74
2023-05-21T14:41:15.948Z,64.96
2023-05-21T14:44:17.633Z,64.71
2023-05-21T14:47:19.252Z,64.75
2023-05-21T14:50:20.900Z,65.29
2023-05-21T14:53:22.515Z,64.59
2023-05-21T14:56:27.129Z,64.76
2023-05-21T14:59:28.670Z,64.63
2023-05-21T15:02:30.328Z,64.62
2023-05-21T15:05:32.210Z,64.84
2023-05-21T15:08:33.741Z,64.62
2023-05-21T15:11:35.851Z,64.42
2023-05-21T15:14:38.027Z,64.27
2023-05-21T15:17:39.982Z,64.12
2023-05-21T15:20:41.573Z,64.18
2023-05-21T15:23:43.116Z,64.07
2023-05-21T15:26:44.621Z,63.99
2023-05-21T15:29:46.242Z,64.27
2023-05-21T15:32:47.830Z,64.16
2023-05-21T15:35:49.530Z,64.36
2023-05-21T15:38:51.150Z,64.18
2023-05-21T15:41:53.955Z,64.05
2023-05-21T15:44:55.544Z,64.26
2023-05-21T15:47:57.091Z,64.44
2023-05-21T15:50:58.665Z,64.20
2023-05-21T15:54:00.222Z,64.46
2023-05-21T15:57:01.791Z,64.48
2023-05-21T16:00:04.840Z,64.10
2023-05-21T16:03:10.216Z,64.35
2023-05-21T16:06:11.819Z,64.08
2023-05-21T16:09:14.398Z,63.96
2023-05-21T16:12:15.997Z,64.11
2023-05-21T16:15:17.523Z,63.97
2023-05-21T16:18:19.062Z,63.70
2023-05-21T16:21:20.870Z,63.89
2023-05-21T16:24:22.465Z,63.67
2023-05-21T16:27:24.979Z,63.56
2023-05-21T16:30:26.502Z,63.61
2023-05-21T16:33:28.104Z,63.51
2023-05-21T16:36:29.739Z,63.55
2023-05-21T16:39:31.288Z,63.67
2023-05-21T16:42:32.834Z,63.37
2023-05-21T16:45:42.549Z,63.47
2023-05-21T16:48:44.166Z,63.57
2023-05-21T16:51:45.738Z,63.91
2023-05-21T16:54:48.809Z,63.31
2023-05-21T16:57:50.435Z,63.57
2023-05-21T17:00:52.119Z,63.41
2023-05-21T17:03:55.741Z,63.25
2023-05-21T17:06:57.392Z,63.34
2023-05-21T17:09:58.917Z,63.50
2023-05-21T17:13:09.744Z,63.37
2023-05-21T17:16:19.890Z,63.28
2023-05-21T17:19:21.596Z,63.40
2023-05-21T17:22:23.188Z,63.15
2023-05-21T17:25:25.131Z,63.38
2023-05-21T17:28:26.689Z,63.19
2023-05-21T17:31:31.899Z,63.60
2023-05-21T17:34:33.557Z,63.55
2023-05-21T17:37:35.100Z,63.50
2023-05-21T17:40:36.699Z,63.45
2023-05-21T17:43:38.258Z,63.44
2023-05-21T17:46:39.908Z,63.41
2023-05-21T17:49:41.640Z,63.35
2023-05-21T17:52:43.165Z,63.04
2023-05-21T17:55:44.669Z,63.43
2023-05-21T17:58:46.195Z,63.29
2023-05-21T18:01:47.727Z,63.37
2023-05-21T18:04:49.249Z,63.31
2023-05-21T18:07:50.806Z,63.56
2023-05-21T18:10:52.364Z,63.60
2023-05-21T18:13:54.330Z,63.54
2023-05-21T18:16:56.002Z,63.62
2023-05-21T18:19:57.886Z,63.81
2023-05-21T18:22:59.485Z,64.00
2023-05-21T18:26:01.206Z,63.90
2023-05-21T18:29:02.739Z,63.73
2023-05-21T18:32:04.557Z,64.21
2023-05-21T18:35:10.693Z,64.47
2023-05-21T18:38:13.470Z,64.74
2023-05-21T18:41:15.117Z,64.89
2023-05-21T18:44:16.738Z,64.84
2023-05-21T18:47:18.395Z,65.29
2023-05-21T18:50:20.471Z,65.17
2023-05-21T18:53:22.066Z,65.39
2023-05-21T18:56:23.686Z,65.45
2023-05-21T18:59:25.270Z,65.04
2023-05-21T19:02:28.125Z,65.42
2023-05-21T19:05:30.213Z,65.57
2023-05-21T19:08:31.765Z,65.71
2023-05-21T19:11:34.385Z,65.53
2023-05-21T19:14:36.035Z,66.31
2023-05-21T19:17:39.553Z,66.03
2023-05-21T19:20:41.155Z,66.35
2023-05-21T19:23:52.720Z,66.26
2023-05-21T19:26:55.094Z,66.75
2023-05-21T19:29:56.663Z,66.86
2023-05-21T19:32:58.251Z,66.60
2023-05-21T19:35:59.779Z,66.96
2023-05-21T19:39:01.328Z,66.99
2023-05-21T19:42:03.088Z,67.63
2023-05-21T19:45:09.222Z,67.67
2023-05-21T19:48:11.005Z,67.45
2023-05-21T19:51:13.004Z,67.25
2023-05-21T19:54:14.557Z,67.50
2023-05-21T19:57:16.454Z,67.79
2023-05-21T20:00:18.835Z,67.66
2023-05-21T20:03:20.963Z,67.64
2023-05-21T20:06:22.977Z,67.56
2023-05-21T20:09:24.494Z,67.72
2023-05-21T20:12:26.200Z,67.97
2023-05-21T20:15:28.506Z,67.69
2023-05-21T20:18:30.065Z,67.34
2023-05-21T20:21:31.838Z,67.74
2023-05-21T20:24:33.430Z,67.91
2023-05-21T20:27:35.543Z,67.73
2023-05-21T20:30:52.798Z,67.81
2023-05-21T20:33:54.455Z,67.54
2023-05-21T20:36:58.043Z,67.97
2023-05-21T20:39:59.908Z,67.61
2023-05-21T20:43:01.795Z,67.93
2023-05-21T20:46:05.743Z,67.49
2023-05-21T20:49:07.428Z,67.33
2023-05-21T20:52:09.004Z,67.39
2023-05-21T20:55:12.674Z,67.21
2023-05-21T20:58:14.274Z,67.49
2023-05-21T21:01:17.320Z,67.53
2023-05-21T21:04:18.961Z,67.23
2023-05-21T21:07:20.614Z,67.30
2023-05-21T21:10:22.402Z,67.57
2023-05-21T21:13:23.939Z,67.52
2023-05-21T21:16:25.619Z,67.57
2023-05-21T21:19:27.447Z,67.50
2023-05-21T21:22:29.078Z,67.56
2023-05-21T21:25:31.348Z,67.27
2023-05-21T21:28:32.852Z,67.22
2023-05-21T21:31:34.400Z,67.10
2023-05-21T21:34:35.958Z,67.44
2023-05-21T21:37:37.580Z,67.36
2023-05-21T21:40:39.268Z,67.21
2023-05-21T21:43:41.092Z,67.24
2023-05-21T21:46:42.667Z,67.36
2023-05-21T21:49:44.444Z,67.00
2023-05-21T21:52:46.228Z,67.17
2023-05-21T21:55:47.745Z,66.86
2023-05-21T21:58:49.288Z,67.10
2023-05-21T22:01:50.880Z,67.07
2023-05-21T22:04:52.448Z,67.07
2023-05-21T22:07:53.946Z,67.00
2023-05-21T22:10:56.028Z,67.02
2023-05-21T22:14:03.471Z,66.99
2023-05-21T22:17:08.325Z,66.76
2023-05-21T22:20:10.682Z,66.81
2023-05-21T22:23:12.226Z,66.57
2023-05-21T22:26:13.770Z,66.73
2023-05-21T22:29:15.332Z,66.49
2023-05-21T22:32:16.906Z,66.31
2023-05-21T22:35:18.812Z,66.07
2023-05-21T22:38:20.818Z,66.19
2023-05-21T22:41:22.861Z,65.84
2023-05-21T22:44:24.348Z,65.66
2023-05-21T22:47:26.434Z,65.86
2023-05-21T22:50:29.372Z,65.90
2023-05-21T22:53:32.247Z,65.78
2023-05-21T22:56:33.763Z,65.87
2023-05-21T22:59:35.583Z,65.93
2023-05-21T23:02:37.357Z,65.95
2023-05-21T23:05:39.045Z,65.83
2023-05-21T23:08:41.036Z,66.20
2023-05-21T23:11:42.654Z,65.85
2023-05-21T23:14:44.195Z,65.68
2023-05-21T23:17:45.846Z,65.66
2023-05-21T23:20:47.451Z,65.86
2023-05-21T23:23:49.020Z,65.76
2023-05-21T23:26:50.546Z,65.23
2023-05-21T23:29:52.159Z,65.63
2023-05-21T23:32:53.761Z,65.36
2023-05-21T23:35:55.272Z,65.52
2023-05-21T23:38:56.888Z,65.94
2023-05-21T23:41:58.461Z,65.52
2023-05-21T23:45:00.008Z,65.73
2023-05-21T23:48:01.725Z,65.52
2023-05-21T23:51:03.375Z,65.38
2023-05-21T23:54:05.023Z,65.60
2023-05-21T23:57:06.518Z,65.35
